Emporia, Virginia
Current Conditions -  °F | °C
As of 10:35 AM on Saturday 20 Dec 2014 (Local Time) from KEMV Reporting Station
Overcast Overcast  
Wind Chill: -1°   Ceiling: 9000
Heat Index:   Visibility: 10mi
Dew Point: -3°   Wind: 5mph
Humidity: 75%   Direction: 330°NNW
Pressure: 30.35"   Gusts: NA
Location:  36.69°N, 77.55°W
Report Text: KEMV 201535Z AUTO 33004KT 10SM SCT070 OVC090 01/M03 A3035 RMK AO2
Loading
Personal Weather Stations






























Interactive Weather Map New forecast layout! Learn more

10-Day Weather Forecast

Advertisements
Track Severe Weather on mobile